Time;durP1;ratioP1;P1;durP2;ratioP2;P2;SDS_P1;SDS_P2;PMS_P1;PMS_P2;Temp;Humidity;BMP_temperature;BMP_pressure;BME280_temperature;BME280_humidity;BME280_pressure;Samples;Min_cycle;Max_cycle;Signal;HPM_P1;HPM_P2
2021/07/23 00:00:17;;;;;;;3.13;2.60;;;;;;;23.67;67.63;100945.50;5028715;27;104040;-54
2021/07/23 00:02:44;;;;;;;6.00;2.47;;;;;;;23.68;68.12;100953.47;5029217;27;102570;-54
2021/07/23 00:05:12;;;;;;;3.00;2.50;;;;;;;23.67;67.70;100945.50;5029901;27;102374;-54
2021/07/23 00:07:39;;;;;;;3.45;2.85;;;;;;;23.67;67.60;100954.63;5028276;27;102369;-54
2021/07/23 00:10:06;;;;;;;5.22;2.45;;;;;;;23.66;67.82;100955.78;5029449;27;103871;-54
2021/07/23 00:12:33;;;;;;;3.75;2.72;;;;;;;23.67;67.63;100951.84;5022842;27;102352;-53
2021/07/23 00:14:59;;;;;;;3.28;2.60;;;;;;;23.66;67.93;100949.41;5029940;27;102503;-53
2021/07/23 00:17:26;;;;;;;4.20;2.60;;;;;;;23.65;68.21;100959.69;5030812;27;102212;-54
2021/07/23 00:19:53;;;;;;;3.33;2.80;;;;;;;23.67;67.89;100957.41;5027641;27;103917;-53
2021/07/23 00:22:21;;;;;;;3.75;3.00;;;;;;;23.66;67.91;100961.31;5029165;27;102375;-54
2021/07/23 00:24:48;;;;;;;3.80;3.20;;;;;;;23.66;67.89;100961.31;5029555;27;102536;-54
2021/07/23 00:27:15;;;;;;;5.07;2.53;;;;;;;23.64;68.07;100955.31;5029038;27;102321;-54
2021/07/23 00:29:42;;;;;;;3.95;2.80;;;;;;;23.66;67.92;100960.53;5028248;27;103721;-54
2021/07/23 00:32:08;;;;;;;3.35;2.33;;;;;;;23.64;67.95;100951.72;5028857;27;102372;-54
2021/07/23 00:34:36;;;;;;;3.33;2.42;;;;;;;23.65;67.70;100959.69;5025673;27;102209;-54
2021/07/23 00:37:02;;;;;;;3.22;2.42;;;;;;;23.65;68.02;100959.69;5030444;28;102410;-54
2021/07/23 00:39:31;;;;;;;3.30;2.50;;;;;;;23.65;68.03;100954.13;5028059;27;103897;-54
2021/07/23 00:41:58;;;;;;;4.93;2.72;;;;;;;23.64;67.87;100952.53;5028968;27;102225;-54
2021/07/23 00:44:25;;;;;;;3.00;2.58;;;;;;;23.64;67.80;100958.09;5027950;27;102222;-54
2021/07/23 00:46:52;;;;;;;4.57;2.78;;;;;;;23.64;67.84;100955.31;5028928;27;102661;-54
2021/07/23 00:49:19;;;;;;;2.88;2.60;;;;;;;23.63;67.66;100961.22;5027894;27;103970;-54
2021/07/23 00:51:46;;;;;;;3.03;2.63;;;;;;;23.63;68.05;100958.44;5027940;27;102368;-53
2021/07/23 00:54:14;;;;;;;3.78;2.53;;;;;;;23.64;67.73;100951.72;5029152;27;102215;-53
2021/07/23 00:56:42;;;;;;;3.53;2.50;;;;;;;23.63;67.84;100967.59;5028599;27;102786;-54
2021/07/23 00:59:09;;;;;;;3.72;2.80;;;;;;;23.64;68.15;100954.50;5025347;27;103974;-53
2021/07/23 01:01:37;;;;;;;3.38;2.47;;;;;;;23.63;67.98;100956.47;5027521;27;103311;-53
2021/07/23 01:04:04;;;;;;;3.57;3.20;;;;;;;23.62;68.15;100954.88;5027855;27;102710;-54
2021/07/23 01:06:33;;;;;;;5.40;3.88;;;;;;;23.63;68.07;100953.69;5026618;27;102561;-54
2021/07/23 01:09:00;;;;;;;4.50;3.58;;;;;;;23.62;68.06;100943.75;5025753;27;103937;-54
2021/07/23 01:11:26;;;;;;;5.47;3.40;;;;;;;23.63;68.11;100939.81;5026201;27;102402;-54
2021/07/23 01:13:55;;;;;;;4.28;3.40;;;;;;;23.63;68.13;100948.13;5019516;27;102750;-53
2021/07/23 01:16:22;;;;;;;3.63;2.73;;;;;;;23.62;68.04;100954.88;5029729;27;102863;-54
2021/07/23 01:18:50;;;;;;;3.67;2.90;;;;;;;23.61;67.83;100956.00;5027316;27;103911;-53
2021/07/23 01:21:17;;;;;;;3.40;3.00;;;;;;;23.61;67.83;100961.56;5028137;27;102347;-53
2021/07/23 01:23:46;;;;;;;3.05;2.75;;;;;;;23.62;68.03;100956.81;5029528;27;102358;-56
2021/07/23 01:26:13;;;;;;;3.08;2.72;;;;;;;23.62;68.06;100954.88;5030746;27;102386;-54
2021/07/23 01:28:40;;;;;;;3.58;2.95;;;;;;;23.61;67.87;100958.78;5030469;27;103966;-54
2021/07/23 01:31:06;;;;;;;2.70;2.20;;;;;;;23.61;68.13;100953.22;5031413;27;102124;-54
2021/07/23 01:33:33;;;;;;;3.70;2.97;;;;;;;23.61;67.95;100958.78;5041000;27;102458;-54
2021/07/23 01:36:00;;;;;;;3.65;2.90;;;;;;;23.60;68.25;100957.19;5049084;27;102455;-56
2021/07/23 01:38:28;;;;;;;5.93;3.15;;;;;;;23.60;68.03;100956.38;5040384;27;103787;-54
2021/07/23 01:40:56;;;;;;;;;;;;;;;23.60;67.96;100951.63;5040588;27;102064;-54
2021/07/23 01:43:24;;;;;;;3.37;3.00;;;;;;;23.60;68.26;100959.97;5029770;27;102578;-54
2021/07/23 01:45:56;;;;;;;3.03;2.60;;;;;;;23.60;68.23;100957.19;5035214;27;102215;-54
2021/07/23 01:48:23;;;;;;;3.28;2.58;;;;;;;23.60;68.11;100954.41;5028806;27;103868;-53
2021/07/23 01:50:49;;;;;;;4.93;2.50;;;;;;;23.60;68.07;100959.16;5032416;27;102157;-54
2021/07/23 01:53:16;;;;;;;3.45;2.35;;;;;;;23.60;68.11;100962.72;5030661;27;102593;-54
2021/07/23 01:55:43;;;;;;;3.00;2.38;;;;;;;23.60;68.10;100956.38;5027266;27;102382;-54
2021/07/23 01:58:11;;;;;;;3.22;2.55;;;;;;;23.58;68.25;100956.72;5027263;27;103526;-54
2021/07/23 02:00:38;;;;;;;2.60;2.00;;;;;;;23.59;68.01;100958.34;5030355;27;102012;-54
2021/07/23 02:03:04;;;;;;;3.47;2.70;;;;;;;23.60;68.11;100965.50;5024962;27;102421;-54
2021/07/23 02:05:31;;;;;;;3.65;2.40;;;;;;;23.58;68.21;100959.50;5027278;27;102084;-54
2021/07/23 02:07:59;;;;;;;4.25;2.70;;;;;;;23.59;68.24;100955.56;5026605;27;104100;-54
2021/07/23 02:10:27;;;;;;;3.10;2.53;;;;;;;23.60;68.35;100967.50;5028835;27;102202;-54
2021/07/23 02:12:55;;;;;;;4.28;2.50;;;;;;;23.59;68.09;100961.13;5027980;27;102449;-53
2021/07/23 02:15:23;;;;;;;5.33;2.60;;;;;;;23.59;68.50;100966.69;5030401;27;102607;-54
2021/07/23 02:17:50;;;;;;;4.03;2.80;;;;;;;23.58;68.28;100965.03;5027083;27;103894;-53
2021/07/23 02:20:17;;;;;;;3.00;2.60;;;;;;;23.58;68.21;100973.38;5029710;27;102207;-54
2021/07/23 02:22:43;;;;;;;4.40;2.50;;;;;;;23.59;68.35;100977.00;5028933;27;102163;-54
2021/07/23 02:25:10;;;;;;;4.43;2.20;;;;;;;23.58;68.14;100964.25;5026676;27;102506;-54
2021/07/23 02:27:36;;;;;;;2.55;2.20;;;;;;;23.58;68.29;100976.16;5027035;27;103923;-54
2021/07/23 02:30:03;;;;;;;2.65;2.42;;;;;;;23.57;68.25;100969.00;5020412;28;102483;-53
2021/07/23 02:32:32;;;;;;;3.70;2.80;;;;;;;23.58;68.11;100978.13;5027347;28;102642;-53
2021/07/23 02:34:59;;;;;;;3.38;2.45;;;;;;;23.57;68.30;100980.09;5028745;27;102242;-54
2021/07/23 02:37:26;;;;;;;2.60;2.40;;;;;;;23.57;68.30;100980.09;5026218;27;103920;-53
2021/07/23 02:39:52;;;;;;;2.88;2.30;;;;;;;23.57;68.36;100974.53;5026037;27;102434;-54
2021/07/23 02:42:19;;;;;;;3.28;2.30;;;;;;;23.57;68.43;100974.53;5028971;27;102001;-53
2021/07/23 02:44:45;;;;;;;3.58;2.20;;;;;;;23.58;68.51;100976.16;5031372;27;102300;-54
2021/07/23 02:47:12;;;;;;;2.40;2.20;;;;;;;23.58;68.46;100983.69;5026659;27;103960;-53
2021/07/23 02:49:40;;;;;;;3.88;2.35;;;;;;;23.57;68.40;100980.09;5027581;27;102111;-54
2021/07/23 02:52:07;;;;;;;2.70;2.10;;;;;;;23.56;68.58;100978.50;5021215;27;102287;-53
2021/07/23 02:54:33;;;;;;;3.13;2.13;;;;;;;23.55;68.51;100982.44;5026928;27;102204;-53
2021/07/23 02:57:00;;;;;;;2.10;1.85;;;;;;;23.55;68.22;100979.66;5028085;27;103946;-54
2021/07/23 02:59:26;;;;;;;2.75;2.40;;;;;;;23.56;68.81;100984.06;5027288;27;102148;-53
2021/07/23 03:01:53;;;;;;;3.05;2.67;;;;;;;23.57;68.25;100991.22;5027983;27;102514;-54
2021/07/23 03:04:19;;;;;;;2.50;2.30;;;;;;;23.57;68.50;100982.06;5027971;27;102194;-54
2021/07/23 03:06:47;;;;;;;2.40;1.88;;;;;;;23.57;68.63;100990.41;5026174;27;103790;-53
2021/07/23 03:09:14;;;;;;;2.58;2.35;;;;;;;23.56;68.60;100986.84;5022824;28;102369;-54
2021/07/23 03:11:41;;;;;;;3.22;2.40;;;;;;;23.56;68.41;100984.06;5030883;27;103211;-54
2021/07/23 03:14:08;;;;;;;2.25;2.05;;;;;;;23.57;68.57;100988.44;5031425;27;102144;-53
2021/07/23 03:16:35;;;;;;;2.65;2.20;;;;;;;23.56;68.37;100981.28;5029236;27;103772;-53
2021/07/23 03:19:01;;;;;;;3.22;2.13;;;;;;;23.56;68.53;100989.59;5029898;27;102039;-53
2021/07/23 03:21:28;;;;;;;3.58;2.28;;;;;;;23.57;68.42;100991.22;5021612;28;102460;-53
2021/07/23 03:23:56;;;;;;;2.60;2.40;;;;;;;23.57;68.50;101001.53;5031139;28;102165;-53
2021/07/23 03:26:22;;;;;;;2.53;2.20;;;;;;;23.56;68.45;100989.59;5029558;27;102796;-53
2021/07/23 03:28:49;;;;;;;4.00;2.35;;;;;;;23.57;68.65;100996.78;5026137;27;102208;-54
2021/07/23 03:31:16;;;;;;;2.72;2.25;;;;;;;23.57;68.70;100991.22;5030795;27;102161;-55
2021/07/23 03:33:42;;;;;;;2.92;2.63;;;;;;;23.57;68.42;101002.31;5030189;27;102245;-54
2021/07/23 03:36:09;;;;;;;2.40;2.20;;;;;;;23.57;68.71;101005.09;5027059;27;103897;-53
2021/07/23 03:38:35;;;;;;;2.58;2.38;;;;;;;23.57;68.62;101002.31;5030923;28;102490;-54
2021/07/23 03:41:05;;;;;;;2.55;2.35;;;;;;;23.57;68.59;101005.09;5019160;27;102518;-53
2021/07/23 03:43:31;;;;;;;2.45;2.22;;;;;;;23.58;68.60;101003.94;5024011;27;102612;-53
2021/07/23 03:45:59;;;;;;;4.53;2.40;;;;;;;23.58;68.77;101015.06;5026358;27;103880;-53
2021/07/23 03:48:25;;;;;;;2.67;2.38;;;;;;;23.58;68.78;100998.38;5029277;27;102266;-54
2021/07/23 03:50:52;;;;;;;3.10;2.80;;;;;;;23.58;68.76;101008.69;5031863;27;102683;-54
2021/07/23 03:53:19;;;;;;;3.22;2.58;;;;;;;23.57;68.60;101007.88;5030830;28;102581;-53
2021/07/23 03:55:46;;;;;;;3.03;2.58;;;;;;;23.59;68.93;101011.13;5025527;27;103919;-54
2021/07/23 03:58:14;;;;;;;3.13;2.50;;;;;;;23.57;68.82;101007.88;5029691;27;102334;-53
2021/07/23 04:00:40;;;;;;;3.50;2.30;;;;;;;23.57;68.86;101007.88;5029687;27;102857;-54
2021/07/23 04:03:06;;;;;;;2.75;2.40;;;;;;;23.58;68.97;101009.50;5030391;27;102818;-54
2021/07/23 04:05:33;;;;;;;3.33;2.20;;;;;;;23.57;68.91;101007.88;5028580;27;103976;-53
2021/07/23 04:08:03;;;;;;;2.30;2.10;;;;;;;23.58;69.00;101005.91;5016167;28;102495;-54
2021/07/23 04:10:29;;;;;;;2.88;2.47;;;;;;;23.58;69.14;101008.69;5028559;27;102183;-53
2021/07/23 04:12:56;;;;;;;3.75;2.20;;;;;;;23.57;69.18;101001.53;5031861;27;102245;-53
2021/07/23 04:15:24;;;;;;;2.80;2.50;;;;;;;23.56;68.92;101006.28;5029527;27;103957;-53
2021/07/23 04:17:53;;;;;;;3.03;2.67;;;;;;;23.57;68.96;101010.66;5028860;27;102552;-53
2021/07/23 04:20:20;;;;;;;3.20;2.72;;;;;;;23.57;69.24;101002.31;5024814;27;102768;-54
2021/07/23 04:22:46;;;;;;;4.38;2.58;;;;;;;23.58;68.98;100995.59;5030255;27;102826;-54
2021/07/23 04:25:13;;;;;;;2.58;2.25;;;;;;;23.57;69.18;100996.78;5023153;27;103998;-54
2021/07/23 04:27:40;;;;;;;2.60;2.20;;;;;;;23.58;69.04;100990.03;5024319;27;102496;-54
2021/07/23 04:30:07;;;;;;;2.38;2.17;;;;;;;23.58;69.21;100987.28;5028317;27;102435;-54
2021/07/23 04:32:35;;;;;;;2.63;2.25;;;;;;;23.58;69.24;100992.81;5028689;27;102692;-54
2021/07/23 04:35:02;;;;;;;2.53;2.10;;;;;;;23.57;69.05;100996.78;5030057;27;103879;-54
2021/07/23 04:37:28;;;;;;;3.30;2.20;;;;;;;23.58;69.44;100990.03;5015788;27;102620;-54
2021/07/23 04:39:57;;;;;;;;;;;;;;;23.59;69.33;100988.91;5019657;27;102486;-54
2021/07/23 04:42:24;;;;;;;2.70;2.45;;;;;;;23.58;69.51;100992.81;5025447;27;102266;-54
2021/07/23 04:44:50;;;;;;;3.08;2.50;;;;;;;23.57;69.42;100988.44;5028490;27;103800;-54
2021/07/23 04:47:17;;;;;;;2.00;1.90;;;;;;;23.59;69.42;101002.00;5030526;27;102317;-54
2021/07/23 04:49:45;;;;;;;2.30;2.10;;;;;;;23.58;69.54;100987.28;5027509;27;102847;-54
2021/07/23 04:52:11;;;;;;;3.38;2.35;;;;;;;23.59;69.53;100985.31;5029777;27;102586;-54
2021/07/23 04:54:38;;;;;;;2.70;2.45;;;;;;;23.60;69.33;100990.50;5027490;27;103255;-54
2021/07/23 04:57:05;;;;;;;4.22;2.42;;;;;;;23.58;69.43;100992.81;5027880;27;102648;-54
2021/07/23 04:59:32;;;;;;;2.80;2.50;;;;;;;23.59;69.46;101000.03;5026438;27;102008;-54
2021/07/23 05:01:58;;;;;;;2.40;2.20;;;;;;;23.59;69.43;101005.56;5029221;27;102644;-54
2021/07/23 05:04:25;;;;;;;2.38;2.13;;;;;;;23.59;69.68;100999.22;5028243;27;103889;-54
2021/07/23 05:06:54;;;;;;;2.40;2.20;;;;;;;23.58;69.48;101009.50;5029963;27;102165;-54
2021/07/23 05:09:21;;;;;;;2.22;2.00;;;;;;;23.58;69.45;101006.72;5028995;27;102098;-54
2021/07/23 05:11:47;;;;;;;3.10;2.38;;;;;;;23.59;69.50;101005.56;5029799;27;102878;-54
2021/07/23 05:14:16;;;;;;;2.63;2.25;;;;;;;23.59;69.72;101011.13;5028958;27;103890;-54
2021/07/23 05:16:43;;;;;;;2.78;2.38;;;;;;;23.60;69.47;101011.94;5025778;27;102432;-54
2021/07/23 05:19:12;;;;;;;2.70;2.50;;;;;;;23.60;69.73;101012.75;5026505;27;102486;-55
2021/07/23 05:21:39;;;;;;;3.03;2.40;;;;;;;23.59;69.50;101016.69;5025145;27;102793;-54
2021/07/23 05:24:08;;;;;;;2.10;1.92;;;;;;;23.61;69.52;101021.88;5027311;27;103775;-55
2021/07/23 05:26:36;;;;;;;2.47;2.15;;;;;;;23.61;69.50;101014.34;5028804;27;102476;-54
2021/07/23 05:29:03;;;;;;;;;;;;;;;23.62;69.66;101018.78;5026519;27;102613;-54
2021/07/23 05:31:29;;;;;;;3.55;2.22;;;;;;;23.63;69.79;101023.16;5027927;27;102640;-54
2021/07/23 05:34:02;;;;;;;2.30;2.10;;;;;;;23.63;69.42;101017.59;5015279;27;103882;-54
2021/07/23 05:36:28;;;;;;;2.40;2.20;;;;;;;23.63;69.46;101009.25;5025876;27;102492;-54
2021/07/23 05:38:55;;;;;;;3.15;2.42;;;;;;;23.63;69.50;101012.03;5028788;27;102689;-54
2021/07/23 05:41:23;;;;;;;3.03;2.53;;;;;;;23.64;69.19;101013.66;5030713;27;102757;-54
2021/07/23 05:43:50;;;;;;;2.13;1.93;;;;;;;23.65;69.05;101009.69;5027378;28;102980;-54
2021/07/23 05:46:17;;;;;;;2.40;2.20;;;;;;;23.65;69.18;101006.91;5026326;27;102465;-54
2021/07/23 05:48:43;;;;;;;2.40;2.20;;;;;;;23.66;69.11;101016.91;5024768;27;102648;-54
2021/07/23 05:51:11;;;;;;;2.20;2.00;;;;;;;23.66;69.24;101016.91;5025348;27;102682;-54
2021/07/23 05:53:38;;;;;;;2.40;1.88;;;;;;;23.67;69.26;101018.53;5023529;27;103923;-54
2021/07/23 05:56:05;;;;;;;2.03;1.90;;;;;;;23.68;69.19;101020.16;5026893;27;102214;-54
2021/07/23 05:58:33;;;;;;;2.33;2.05;;;;;;;23.69;69.33;101007.06;5026632;27;102465;-54
2021/07/23 06:01:04;;;;;;;2.47;2.10;;;;;;;23.70;69.29;101012.28;5028360;27;102682;-55
2021/07/23 06:03:31;;;;;;;2.75;2.10;;;;;;;23.72;69.17;101009.13;5027404;27;104150;-55
2021/07/23 06:05:59;;;;;;;2.40;2.17;;;;;;;23.73;69.15;101013.53;5027452;27;102135;-54
2021/07/23 06:08:25;;;;;;;2.60;2.40;;;;;;;23.72;69.36;101007.16;5022036;27;103162;-57
2021/07/23 06:10:52;;;;;;;2.38;2.03;;;;;;;23.73;69.18;101013.53;5026121;27;103493;-54
2021/07/23 06:13:18;;;;;;;2.15;1.95;;;;;;;23.73;69.41;101017.13;5024598;27;103872;-54
2021/07/23 06:15:46;;;;;;;2.17;1.95;;;;;;;23.74;69.44;101015.97;5027249;27;102154;-55
2021/07/23 06:18:13;;;;;;;2.50;2.30;;;;;;;23.77;69.10;101013.66;5030332;27;102296;-54
2021/07/23 06:20:40;;;;;;;3.67;2.30;;;;;;;23.76;69.17;101014.78;5028522;27;102471;-55
2021/07/23 06:23:08;;;;;;;2.45;2.13;;;;;;;23.78;69.30;101012.47;5028060;27;103906;-57
2021/07/23 06:25:35;;;;;;;2.35;2.15;;;;;;;23.79;68.91;101014.09;5034635;27;102576;-54
2021/07/23 06:28:04;;;;;;;2.45;2.25;;;;;;;23.79;69.01;101008.53;5036158;27;102322;-54
2021/07/23 06:30:31;;;;;;;2.45;2.25;;;;;;;23.81;69.02;101014.56;5040212;27;102418;-54
2021/07/23 06:32:59;;;;;;;2.60;2.30;;;;;;;23.81;69.31;101011.78;5036292;27;103696;-57
2021/07/23 06:35:29;;;;;;;3.55;2.13;;;;;;;23.81;69.14;101009.81;5035133;27;102083;-54
2021/07/23 06:37:57;;;;;;;3.42;2.30;;;;;;;23.81;69.15;101006.22;5025025;27;102593;-53
2021/07/23 06:40:23;;;;;;;2.40;2.20;;;;;;;23.82;69.24;101007.81;5030083;27;102709;-54
2021/07/23 06:42:50;;;;;;;2.72;2.22;;;;;;;23.83;69.03;101012.22;5027796;28;103900;-53
2021/07/23 06:45:17;;;;;;;3.10;2.05;;;;;;;23.84;69.11;101011.03;5029358;27;102333;-54
2021/07/23 06:47:44;;;;;;;2.42;2.13;;;;;;;23.83;68.87;101007.47;5018925;27;101936;-54
2021/07/23 06:50:12;;;;;;;3.38;2.00;;;;;;;23.84;69.14;101005.47;5031765;27;102377;-54
2021/07/23 06:52:39;;;;;;;;;;;;;;;23.84;69.04;101011.03;5028291;27;103835;-54
2021/07/23 06:55:06;;;;;;;2.33;1.98;;;;;;;23.85;69.07;101007.13;5026536;27;103534;-54
2021/07/23 06:57:34;;;;;;;1.98;1.88;;;;;;;23.85;69.03;101007.13;5028688;27;102158;-54
2021/07/23 07:00:01;;;;;;;2.53;2.10;;;;;;;23.84;68.94;101006.31;5028080;27;103784;-54
2021/07/23 07:02:27;;;;;;;2.40;2.20;;;;;;;23.86;69.19;101005.94;5029632;27;104198;-56
2021/07/23 07:04:54;;;;;;;2.70;2.13;;;;;;;23.86;69.07;101009.53;5023512;27;102133;-55
2021/07/23 07:07:23;;;;;;;2.47;2.20;;;;;;;23.86;69.19;100997.63;5028528;27;102618;-54
2021/07/23 07:09:50;;;;;;;3.10;2.00;;;;;;;23.87;69.32;101002.00;5027360;27;102732;-55
2021/07/23 07:12:16;;;;;;;2.75;2.20;;;;;;;23.87;68.90;101004.78;5026634;28;104011;-54
2021/07/23 07:14:43;;;;;;;2.15;1.95;;;;;;;23.87;68.84;101000.03;5027501;27;102544;-54
2021/07/23 07:17:10;;;;;;;1.80;1.70;;;;;;;23.88;68.80;101004.44;5025535;27;102425;-55
2021/07/23 07:19:36;;;;;;;1.92;1.73;;;;;;;23.87;68.69;100999.22;5027137;27;102384;-54
2021/07/23 07:22:04;;;;;;;2.10;1.90;;;;;;;23.87;68.89;101000.03;5028072;27;103998;-54
2021/07/23 07:24:32;;;;;;;2.00;1.80;;;;;;;23.87;69.03;100996.44;5025924;27;103275;-54
2021/07/23 07:27:00;;;;;;;2.97;2.10;;;;;;;23.89;68.79;100996.91;5026318;27;102131;-54
2021/07/23 07:29:27;;;;;;;2.10;1.90;;;;;;;23.89;69.07;101002.47;5027449;27;102303;-54
2021/07/23 07:31:53;;;;;;;1.80;1.70;;;;;;;23.89;69.07;100996.91;5025418;27;103961;-54
2021/07/23 07:34:20;;;;;;;2.25;1.85;;;;;;;23.89;68.85;100999.69;5021335;27;103021;-54
2021/07/23 07:36:46;;;;;;;2.10;1.90;;;;;;;23.89;68.79;101002.47;5026522;27;102254;-54
2021/07/23 07:39:13;;;;;;;2.30;2.05;;;;;;;23.89;68.58;101002.47;5027903;28;102851;-54
2021/07/23 07:41:41;;;;;;;1.80;1.70;;;;;;;23.89;68.81;100999.69;5027474;27;103878;-54
2021/07/23 07:44:09;;;;;;;2.17;1.87;;;;;;;23.90;68.85;101001.28;5026581;27;102359;-54
2021/07/23 07:46:36;;;;;;;1.63;1.52;;;;;;;23.90;68.75;101004.06;5025138;27;103121;-54
2021/07/23 07:49:02;;;;;;;2.20;2.00;;;;;;;23.90;68.48;100998.50;5025655;27;102434;-54
2021/07/23 07:51:29;;;;;;;2.05;1.90;;;;;;;23.91;68.43;100997.34;5028945;27;103530;-54
2021/07/23 07:53:55;;;;;;;2.17;1.90;;;;;;;23.92;68.78;101001.75;5027752;27;102111;-54
2021/07/23 07:56:22;;;;;;;2.85;2.08;;;;;;;23.90;68.64;100993.75;5027421;27;103534;-54
2021/07/23 07:58:50;;;;;;;2.97;1.65;;;;;;;23.89;68.59;100996.91;5028019;27;103060;-54
2021/07/23 08:01:17;;;;;;;3.03;1.80;;;;;;;23.87;68.71;101005.59;5030820;27;103028;-54
2021/07/23 08:03:43;;;;;;;2.50;1.90;;;;;;;23.87;68.43;100999.22;5029102;27;102299;-54
2021/07/23 08:06:25;;;;;;;2.85;1.60;;;;;;;23.87;68.42;101002.00;5029576;27;102975;-54
2021/07/23 08:08:53;;;;;;;2.20;2.00;;;;;;;23.85;68.35;101004.34;5031800;27;102089;-54
2021/07/23 08:11:20;;;;;;;1.90;1.70;;;;;;;23.85;68.43;101001.56;5029131;27;103692;-54
2021/07/23 08:13:46;;;;;;;2.47;1.83;;;;;;;23.86;68.04;101005.94;5030693;27;102444;-54
2021/07/23 08:16:14;;;;;;;2.30;1.88;;;;;;;23.86;68.23;100997.63;5025963;27;103197;-54
2021/07/23 08:18:41;;;;;;;2.03;1.83;;;;;;;23.86;68.31;100992.06;5027488;27;102368;-55
2021/07/23 08:21:08;;;;;;;2.17;1.70;;;;;;;23.87;68.29;100993.66;5029585;27;103773;-54
2021/07/23 08:23:35;;;;;;;1.95;1.75;;;;;;;23.86;68.44;101001.19;5029365;27;102084;-54
2021/07/23 08:26:04;;;;;;;1.70;1.60;;;;;;;23.86;68.31;100992.84;5031731;27;102517;-55
2021/07/23 08:28:31;;;;;;;;;;;;;;;23.86;68.41;100994.84;5018025;27;102812;-54
2021/07/23 08:30:57;;;;;;;2.58;1.80;;;;;;;23.86;67.67;101003.97;5012581;27;103987;-54
2021/07/23 08:33:26;;;;;;;2.28;1.75;;;;;;;23.85;67.73;101002.38;5028649;27;102356;-54
2021/07/23 08:35:53;;;;;;;3.05;1.60;;;;;;;23.86;68.04;101005.94;5028772;27;102477;-54
2021/07/23 08:38:19;;;;;;;2.47;2.17;;;;;;;23.85;68.30;101002.38;5023512;27;102208;-54
2021/07/23 08:40:46;;;;;;;3.42;1.70;;;;;;;23.86;68.12;100997.63;5021912;27;103893;-54
2021/07/23 08:43:12;;;;;;;3.42;2.08;;;;;;;23.85;67.97;101001.56;5030319;27;102565;-54
2021/07/23 08:45:40;;;;;;;2.08;1.63;;;;;;;23.85;68.10;101004.34;5026149;27;102223;-54
2021/07/23 08:48:06;;;;;;;2.25;1.60;;;;;;;23.85;68.16;100990.44;5028129;27;102282;-54
2021/07/23 08:50:35;;;;;;;2.65;1.50;;;;;;;23.86;67.95;100992.06;5027062;27;104311;-54
2021/07/23 08:53:09;;;;;;;1.75;1.65;;;;;;;23.85;67.78;100998.78;5029101;27;102226;-54
2021/07/23 08:55:36;;;;;;;2.15;1.80;;;;;;;23.86;67.97;100992.06;5028215;27;102236;-54
2021/07/23 08:58:06;;;;;;;1.83;1.70;;;;;;;23.86;67.92;100995.63;5023755;27;102288;-54
2021/07/23 09:00:33;;;;;;;1.80;1.70;;;;;;;23.85;68.06;100996.81;5022948;27;103862;-54
2021/07/23 09:03:01;;;;;;;1.85;1.27;;;;;;;23.85;68.12;100996.81;5030814;27;102056;-54
2021/07/23 09:05:29;;;;;;;2.07;1.53;;;;;;;23.85;67.95;100991.25;5027812;27;102181;-54
2021/07/23 09:08:10;;;;;;;3.60;1.70;;;;;;;23.85;68.23;100991.25;5029681;27;102249;-54
2021/07/23 09:10:36;;;;;;;1.80;1.70;;;;;;;23.85;68.05;100996.00;5028117;27;103565;-54
2021/07/23 09:13:10;;;;;;;2.10;1.70;;;;;;;23.83;67.71;100988.00;5028711;27;102371;-54
2021/07/23 09:15:38;;;;;;;2.25;1.80;;;;;;;23.84;67.97;100988.81;5029664;27;102625;-54
2021/07/23 09:18:05;;;;;;;3.65;1.92;;;;;;;23.83;67.82;100988.00;5024887;28;102063;-54
2021/07/23 09:20:33;;;;;;;1.80;1.55;;;;;;;23.82;67.81;100988.38;5028701;27;103729;-54
2021/07/23 09:23:02;;;;;;;3.25;1.50;;;;;;;23.83;67.88;100981.63;5031367;27;102064;-54
2021/07/23 09:25:40;;;;;;;2.95;1.67;;;;;;;23.82;67.98;100974.47;5029436;27;102295;-54
2021/07/23 09:28:31;;;;;;;1.60;1.50;;;;;;;23.84;68.16;100983.25;5026222;27;102618;-54
2021/07/23 09:31:00;;;;;;;2.20;2.00;;;;;;;23.83;68.08;100995.53;5027039;27;104060;-54
2021/07/23 09:33:29;;;;;;;3.28;1.58;;;;;;;23.83;67.57;100992.75;5029380;27;102022;-54
2021/07/23 09:35:56;;;;;;;2.30;1.70;;;;;;;23.82;67.79;100991.16;5028277;27;102406;-54
2021/07/23 09:38:32;;;;;;;1.50;1.40;;;;;;;23.82;67.84;100985.59;5032555;27;102320;-54
2021/07/23 09:41:00;;;;;;;2.08;1.60;;;;;;;23.82;68.03;100985.59;5028428;27;103965;-54
2021/07/23 09:43:32;;;;;;;;;;;;;;;23.82;67.99;100974.47;5029523;27;102610;-54
2021/07/23 09:46:24;;;;;;;1.77;1.67;;;;;;;23.82;68.07;100975.28;5030917;27;102413;-54
2021/07/23 09:48:54;;;;;;;1.83;1.70;;;;;;;23.82;67.63;100974.47;5011640;27;102038;-54
2021/07/23 09:51:22;;;;;;;1.75;1.45;;;;;;;23.81;67.63;100972.88;5030311;27;103954;-54
2021/07/23 09:53:50;;;;;;;1.95;1.58;;;;;;;23.81;67.84;100982.00;5024099;27;102247;-54
2021/07/23 09:56:18;;;;;;;2.43;1.77;;;;;;;23.82;67.86;100985.59;5029003;28;102887;-54
2021/07/23 09:58:46;;;;;;;1.63;1.52;;;;;;;23.80;67.88;100980.41;5030333;27;102245;-54
2021/07/23 10:01:18;;;;;;;1.48;1.33;;;;;;;23.80;67.85;100977.63;5028345;27;103808;-54
2021/07/23 10:03:46;;;;;;;2.05;1.83;;;;;;;23.80;67.68;100983.19;5030287;27;102616;-54
2021/07/23 10:06:20;;;;;;;3.40;1.60;;;;;;;23.79;67.73;100980.75;5027204;27;102226;-54
2021/07/23 10:08:50;;;;;;;1.65;1.55;;;;;;;23.80;67.66;100976.78;5027857;27;102340;-54
2021/07/23 10:11:22;;;;;;;1.65;1.55;;;;;;;23.80;68.07;100971.22;5023535;28;103931;-54
2021/07/23 10:13:52;;;;;;;1.92;1.80;;;;;;;23.79;67.72;100964.88;5018800;27;102407;-54
2021/07/23 10:16:19;;;;;;;3.17;1.65;;;;;;;23.81;67.70;100964.53;5019272;27;102538;-54
2021/07/23 10:18:46;;;;;;;1.75;1.50;;;;;;;23.81;67.99;100961.75;5024944;27;102643;-54
2021/07/23 10:21:12;;;;;;;3.05;1.90;;;;;;;23.81;67.94;100964.53;5028563;27;104325;-54
2021/07/23 10:23:42;;;;;;;1.92;1.52;;;;;;;23.79;67.77;100970.44;5028588;27;102135;-54
2021/07/23 10:26:17;;;;;;;1.60;1.50;;;;;;;23.79;67.91;100961.28;5024968;28;102505;-54
2021/07/23 10:28:54;;;;;;;3.40;1.70;;;;;;;23.78;67.81;100956.91;5026895;28;102645;-54
2021/07/23 10:31:43;;;;;;;2.63;1.83;;;;;;;23.78;68.25;100962.47;5026453;28;103888;-53
2021/07/23 10:34:10;;;;;;;1.70;1.60;;;;;;;23.78;67.79;100956.91;5026674;27;102666;-54
2021/07/23 10:36:42;;;;;;;1.80;1.52;;;;;;;23.77;67.72;100955.28;5025922;27;102353;-54
2021/07/23 10:39:17;;;;;;;1.63;1.50;;;;;;;23.77;67.81;100952.50;5027889;27;102530;-54
2021/07/23 10:42:28;;;;;;;1.50;1.40;;;;;;;23.77;68.10;100949.75;5021580;27;103852;-54
2021/07/23 10:44:56;;;;;;;2.92;1.50;;;;;;;23.76;67.68;100945.31;5024175;27;102500;-54
2021/07/23 10:47:41;;;;;;;2.75;1.67;;;;;;;23.75;67.94;100947.28;5027476;27;102078;-55
2021/07/23 10:50:10;;;;;;;2.03;1.60;;;;;;;23.74;67.64;100945.69;5025174;27;102865;-54
2021/07/23 10:52:38;;;;;;;1.70;1.60;;;;;;;23.74;67.35;100952.03;5025931;27;104861;-54
2021/07/23 10:55:16;;;;;;;3.20;1.60;;;;;;;23.74;67.75;100949.28;5019745;28;102560;-54
2021/07/23 10:57:43;;;;;;;;;;;;;;;23.74;67.75;100940.13;5024053;27;102556;-54
2021/07/23 11:00:11;;;;;;;2.00;1.80;;;;;;;23.73;67.78;100950.44;5026745;27;103382;-54
2021/07/23 11:02:42;;;;;;;;;;;;;;;23.76;67.81;100945.31;5023992;27;103917;-54
2021/07/23 11:05:10;;;;;;;1.80;1.70;;;;;;;23.74;67.45;100940.13;5019012;27;102073;-54
2021/07/23 11:07:38;;;;;;;1.80;1.70;;;;;;;23.73;67.76;100944.09;5024101;27;102213;-54
2021/07/23 11:10:05;;;;;;;2.00;1.83;;;;;;;23.73;67.80;100944.09;5027294;27;102519;-54
2021/07/23 11:12:39;;;;;;;3.10;1.65;;;;;;;23.73;67.92;100933.78;5023612;27;104113;-54
2021/07/23 11:15:07;;;;;;;3.50;1.95;;;;;;;23.72;67.74;100934.09;5024348;28;104198;-54
2021/07/23 11:17:46;;;;;;;1.70;1.60;;;;;;;23.71;67.91;100941.63;5027234;27;102094;-54
2021/07/23 11:20:13;;;;;;;1.60;1.50;;;;;;;23.71;67.76;100930.53;5025353;27;102155;-54
2021/07/23 11:22:40;;;;;;;2.30;1.70;;;;;;;23.72;67.81;100931.31;5024532;27;104242;-54